Time;durP1;ratioP1;P1;durP2;ratioP2;P2;SDS_P1;SDS_P2;PMS_P1;PMS_P2;Temp;Humidity;BMP_temperature;BMP_pressure;BME280_temperature;BME280_humidity;BME280_pressure;Samples;Min_cycle;Max_cycle;Signal;HPM_P1;HPM_P2
2023/02/02 00:01:33;;;;;;;44.43;18.80;;;5.60;88.20;;;;;;5013813;28;20702;-89
2023/02/02 00:03:59;;;;;;;35.50;17.53;;;5.50;88.20;;;;;;5014402;28;20264;-88
2023/02/02 00:06:26;;;;;;;43.40;19.13;;;5.50;88.40;;;;;;5015138;28;20203;-88
2023/02/02 00:08:52;;;;;;;47.97;20.27;;;5.50;88.50;;;;;;5014639;28;20185;-88
2023/02/02 00:11:18;;;;;;;34.23;17.47;;;5.60;88.60;;;;;;5014592;28;20200;-87
2023/02/02 00:13:44;;;;;;;40.27;18.87;;;5.60;88.60;;;;;;5013709;28;20223;-88
2023/02/02 00:16:44;;;;;;;57.60;19.77;;;5.70;88.00;;;;;;5014594;28;20185;-88
2023/02/02 00:19:14;;;;;;;47.07;20.17;;;5.60;88.30;;;;;;4992110;28;20191;-88
2023/02/02 00:21:40;;;;;;;45.33;19.73;;;5.50;88.60;;;;;;5014076;28;20194;-88
2023/02/02 00:24:07;;;;;;;50.57;21.93;;;5.50;88.90;;;;;;5013166;28;20613;-88
2023/02/02 00:26:33;;;;;;;43.73;22.30;;;5.50;89.40;;;;;;5013077;28;20228;-88
2023/02/02 00:28:59;;;;;;;46.90;23.67;;;5.40;89.80;;;;;;5012893;28;20191;-88
2023/02/02 00:31:25;;;;;;;58.73;24.40;;;5.30;90.30;;;;;;5013037;28;20203;-88
2023/02/02 00:33:50;;;;;;;35.87;22.67;;;5.30;90.50;;;;;;5013483;28;20220;-88
2023/02/02 00:36:17;;;;;;;48.67;23.83;;;5.20;90.60;;;;;;5013200;28;20201;-88
2023/02/02 00:38:43;;;;;;;48.50;24.00;;;5.20;90.60;;;;;;5013096;28;20594;-88
2023/02/02 00:41:09;;;;;;;40.87;21.10;;;5.20;90.60;;;;;;5013079;28;20204;-88
2023/02/02 00:43:34;;;;;;;39.90;21.83;;;5.20;90.60;;;;;;5012972;28;20173;-88
2023/02/02 00:46:00;;;;;;;46.90;24.13;;;5.20;90.70;;;;;;5013730;28;20188;-88
2023/02/02 00:48:25;;;;;;;51.60;24.20;;;5.20;90.60;;;;;;5013899;28;20704;-88
2023/02/02 00:50:52;;;;;;;48.77;26.03;;;5.20;90.80;;;;;;5013120;28;20208;-89
2023/02/02 00:53:17;;;;;;;35.13;24.20;;;5.20;90.80;;;;;;5012717;28;20204;-88
2023/02/02 00:55:43;;;;;;;43.57;22.17;;;5.10;91.00;;;;;;5013126;28;20188;-88
2023/02/02 00:58:09;;;;;;;32.50;20.63;;;5.10;91.10;;;;;;5014216;28;20691;-88
2023/02/02 01:00:34;;;;;;;44.43;22.30;;;5.10;90.80;;;;;;5012778;28;20232;-89
2023/02/02 01:03:03;;;;;;;44.83;23.23;;;5.10;90.80;;;;;;5013028;28;20180;-88
2023/02/02 01:05:30;;;;;;;31.73;22.47;;;5.20;90.60;;;;;;5012995;28;20181;-88
2023/02/02 01:07:56;;;;;;;46.13;24.50;;;5.20;90.50;;;;;;5012837;28;20180;-87
2023/02/02 01:10:21;;;;;;;45.30;22.73;;;5.20;90.40;;;;;;5013171;28;20200;-87
2023/02/02 01:12:47;;;;;;;38.03;22.93;;;5.20;90.20;;;;;;5013847;28;20196;-89
2023/02/02 01:15:12;;;;;;;35.53;21.57;;;5.10;90.40;;;;;;5012138;28;20229;-88
2023/02/02 01:17:38;;;;;;;50.97;24.90;;;5.10;90.30;;;;;;5013840;28;20255;-89
2023/02/02 01:20:05;;;;;;;28.77;20.97;;;5.10;90.10;;;;;;5012822;28;20178;-88
2023/02/02 01:22:32;;;;;;;34.00;20.63;;;5.10;90.10;;;;;;5013034;28;20264;-88
2023/02/02 01:24:58;;;;;;;50.33;21.60;;;5.20;89.90;;;;;;5016064;28;20188;-89
2023/02/02 01:27:24;;;;;;;27.30;18.93;;;5.10;89.80;;;;;;5016281;28;20184;-88
2023/02/02 01:29:50;;;;;;;32.33;18.47;;;5.20;89.60;;;;;;5017835;28;20177;-88
2023/02/02 01:32:15;;;;;;;49.87;21.30;;;5.20;89.70;;;;;;5017215;28;20228;-89
2023/02/02 01:34:42;;;;;;;36.67;19.37;;;5.20;89.70;;;;;;5015738;28;20208;-88
2023/02/02 01:37:08;;;;;;;34.40;20.23;;;5.30;89.80;;;;;;5015858;28;20263;-88
2023/02/02 01:39:34;;;;;;;38.73;20.97;;;5.30;89.70;;;;;;5017192;28;20177;-88
2023/02/02 01:42:00;;;;;;;52.13;22.60;;;5.30;89.60;;;;;;5015557;28;20192;-89
2023/02/02 01:45:04;;;;;;;41.90;22.87;;;5.30;89.80;;;;;;5015808;28;20177;-88
2023/02/02 01:47:38;;;;;;;45.90;24.13;;;5.30;89.90;;;;;;5015872;28;20173;-89
2023/02/02 01:50:07;;;;;;;31.83;20.73;;;5.30;89.90;;;;;;5015663;28;20184;-89
2023/02/02 01:52:34;;;;;;;43.47;22.80;;;5.30;89.70;;;;;;5015683;28;20184;-88
2023/02/02 01:55:07;;;;;;;28.17;21.30;;;5.30;89.70;;;;;;5015806;28;20561;-88
2023/02/02 01:57:49;;;;;;;41.03;22.27;;;5.30;89.80;;;;;;5016694;28;20237;-89
2023/02/02 02:00:17;;;;;;;36.60;21.87;;;5.30;89.70;;;;;;5015582;28;20199;-88
2023/02/02 02:02:48;;;;;;;35.60;24.30;;;5.40;89.70;;;;;;5016345;28;20552;-89
2023/02/02 02:05:20;;;;;;;28.50;23.40;;;5.30;90.00;;;;;;5015240;28;20195;-90
2023/02/02 02:07:48;;;;;;;31.73;22.37;;;5.30;90.30;;;;;;5014992;28;20538;-89
2023/02/02 02:10:16;;;;;;;51.40;25.80;;;5.30;90.60;;;;;;5015025;28;20690;-89
2023/02/02 02:12:41;;;;;;;41.83;23.67;;;5.30;90.80;;;;;;5014980;28;20598;-89
2023/02/02 02:18:21;;;;;;;65.03;26.63;;;5.30;90.80;;;;;;5016678;28;20172;-89
2023/02/02 02:27:36;;;;;;;46.90;24.30;;;5.30;90.80;;;;;;5015735;28;20545;-90
2023/02/02 02:30:08;;;;;;;52.67;24.33;;;5.20;90.70;;;;;;5014417;28;20188;-89
2023/02/02 02:32:43;;;;;;;46.37;22.83;;;5.20;90.60;;;;;;5015620;28;20538;-89
2023/02/02 02:35:22;;;;;;;37.60;22.67;;;5.20;90.20;;;;;;5014462;28;20180;-88
2023/02/02 02:37:58;;;;;;;34.80;21.73;;;5.30;90.00;;;;;;5014729;28;20207;-88
2023/02/02 02:40:47;;;;;;;33.83;20.60;;;5.30;89.70;;;;;;5014341;28;20200;-89
2023/02/02 02:43:26;;;;;;;27.90;19.97;;;5.30;89.50;;;;;;5013935;28;20189;-89
2023/02/02 02:45:52;;;;;;;33.93;20.27;;;5.30;89.50;;;;;;5014355;28;20180;-89
2023/02/02 02:48:17;;;;;;;27.27;21.00;;;5.20;89.80;;;;;;5014391;28;20206;-89
2023/02/02 02:50:43;;;;;;;42.90;22.27;;;5.20;90.00;;;;;;5015108;28;20227;-89
2023/02/02 02:53:14;;;;;;;32.30;23.57;;;5.20;90.10;;;;;;5014132;28;20207;-88
2023/02/02 02:55:59;;;;;;;40.47;23.50;;;5.20;90.30;;;;;;5014289;28;20173;-89
2023/02/02 02:58:55;;;;;;;38.87;24.80;;;5.20;90.40;;;;;;5014101;28;20179;-88
2023/02/02 03:01:26;;;;;;;38.57;23.30;;;5.10;90.60;;;;;;5013154;28;20227;-89
2023/02/02 03:04:17;;;;;;;43.93;25.87;;;5.00;90.70;;;;;;5013903;28;20644;-88
2023/02/02 03:06:58;;;;;;;46.03;25.90;;;5.10;91.00;;;;;;5015271;28;20260;-89
2023/02/02 03:09:29;;;;;;;35.20;24.43;;;5.20;91.00;;;;;;5015477;28;20173;-89
2023/02/02 03:11:55;;;;;;;40.10;24.07;;;5.20;90.90;;;;;;5014095;28;20745;-89
2023/02/02 03:14:21;;;;;;;26.77;22.90;;;5.10;90.90;;;;;;5014607;28;20216;-88
2023/02/02 03:16:50;;;;;;;31.50;22.97;;;5.10;90.80;;;;;;5014633;28;20522;-89
2023/02/02 03:19:16;;;;;;;31.67;20.43;;;5.00;90.70;;;;;;5015036;28;20302;-89
2023/02/02 03:21:41;;;;;;;31.47;18.37;;;5.10;90.10;;;;;;5013847;28;20251;-89
2023/02/02 03:24:07;;;;;;;21.03;17.20;;;5.10;90.00;;;;;;5013866;28;20600;-89
2023/02/02 03:26:33;;;;;;;33.27;19.07;;;5.10;89.90;;;;;;5015128;28;20187;-88
2023/02/02 03:28:59;;;;;;;31.60;20.60;;;5.00;90.00;;;;;;5013513;28;20185;-90
2023/02/02 03:31:27;;;;;;;25.73;23.07;;;5.00;90.30;;;;;;5013409;28;20255;-90
2023/02/02 03:33:53;;;;;;;34.60;24.60;;;4.90;90.70;;;;;;5013347;28;20208;-90
2023/02/02 03:36:18;;;;;;;35.07;24.20;;;4.90;91.00;;;;;;5014650;28;20176;-89
2023/02/02 03:38:44;;;;;;;28.90;25.93;;;4.80;91.10;;;;;;5012961;28;20277;-89
2023/02/02 03:41:09;;;;;;;34.37;26.43;;;4.80;91.20;;;;;;5013946;28;20291;-89
2023/02/02 03:43:35;;;;;;;30.67;25.37;;;4.80;91.20;;;;;;5013359;28;20179;-89
2023/02/02 03:46:05;;;;;;;37.47;24.97;;;4.80;91.30;;;;;;5012760;28;20187;-89
2023/02/02 03:48:34;;;;;;;34.60;26.20;;;4.80;91.40;;;;;;5013595;28;20647;-89
2023/02/02 03:51:03;;;;;;;31.07;23.87;;;4.90;91.60;;;;;;5014838;28;20199;-89
2023/02/02 03:53:29;;;;;;;34.60;26.17;;;4.80;91.40;;;;;;5013498;28;20215;-88
2023/02/02 03:55:54;;;;;;;45.50;25.63;;;4.90;91.40;;;;;;5013455;28;20176;-89
2023/02/02 03:58:21;;;;;;;38.73;23.83;;;4.90;91.20;;;;;;5014445;28;20255;-88
2023/02/02 04:00:46;;;;;;;33.13;23.20;;;4.90;91.00;;;;;;5013273;28;20208;-88
2023/02/02 04:03:12;;;;;;;32.57;24.70;;;4.90;90.60;;;;;;5013410;28;20658;-88
2023/02/02 04:05:37;;;;;;;35.43;22.20;;;4.90;90.60;;;;;;5014123;28;20184;-89
2023/02/02 04:08:03;;;;;;;38.73;20.43;;;4.90;90.50;;;;;;5013264;28;20238;-89
2023/02/02 04:10:28;;;;;;;33.87;19.27;;;4.90;90.40;;;;;;5013171;28;20690;-89
2023/02/02 04:12:54;;;;;;;32.53;19.43;;;4.90;90.30;;;;;;5012892;28;20230;-88
2023/02/02 04:15:19;;;;;;;35.40;19.33;;;4.90;89.90;;;;;;5014339;28;20172;-89
2023/02/02 04:17:45;;;;;;;32.90;21.00;;;4.90;89.90;;;;;;5013007;28;20221;-89
2023/02/02 04:20:11;;;;;;;31.30;20.47;;;4.90;90.00;;;;;;5012745;28;20186;-89
2023/02/02 04:22:36;;;;;;;35.53;20.93;;;4.90;90.10;;;;;;5013081;28;20557;-89
2023/02/02 04:25:02;;;;;;;20.90;18.53;;;5.00;90.10;;;;;;5013130;28;20311;-89
2023/02/02 04:27:31;;;;;;;26.10;19.63;;;5.00;89.90;;;;;;5013312;28;20651;-89
2023/02/02 04:29:56;;;;;;;29.33;22.03;;;5.00;89.90;;;;;;5012828;28;20307;-90
2023/02/02 04:32:22;;;;;;;27.87;21.70;;;5.00;90.20;;;;;;5013065;28;20650;-88
2023/02/02 04:34:47;;;;;;;32.63;22.80;;;5.00;90.10;;;;;;5012869;28;20670;-89
2023/02/02 04:37:13;;;;;;;35.23;24.23;;;5.10;89.90;;;;;;5012855;28;20239;-89
2023/02/02 04:39:39;;;;;;;34.47;24.63;;;5.10;90.00;;;;;;5013986;28;20235;-89
2023/02/02 04:42:04;;;;;;;43.70;25.47;;;5.10;90.50;;;;;;5014039;28;20698;-89
2023/02/02 04:44:30;;;;;;;38.70;24.10;;;5.00;90.70;;;;;;5014016;28;20227;-89
2023/02/02 04:46:55;;;;;;;38.17;25.47;;;5.00;90.80;;;;;;5012826;28;20212;-89
2023/02/02 04:49:21;;;;;;;43.33;26.53;;;5.00;90.90;;;;;;5013006;28;20220;-88
2023/02/02 04:51:47;;;;;;;45.53;25.07;;;5.00;90.80;;;;;;5012785;28;20200;-89
2023/02/02 04:54:12;;;;;;;40.13;25.33;;;5.00;90.70;;;;;;5012624;28;20204;-89
2023/02/02 04:56:38;;;;;;;31.40;23.33;;;5.00;90.60;;;;;;5012503;28;20185;-89
2023/02/02 04:59:04;;;;;;;36.30;23.83;;;5.00;90.50;;;;;;5016523;28;20665;-89
2023/02/02 05:01:29;;;;;;;42.37;25.17;;;5.10;90.40;;;;;;5016666;28;20717;-89
2023/02/02 05:03:55;;;;;;;48.23;25.03;;;5.00;90.40;;;;;;5017735;28;20272;-89
2023/02/02 05:06:21;;;;;;;50.40;25.17;;;5.10;90.50;;;;;;5017792;28;20184;-88
2023/02/02 05:08:47;;;;;;;47.87;23.70;;;5.10;90.30;;;;;;5017627;28;20259;-88
2023/02/02 05:11:19;;;;;;;43.53;26.13;;;5.10;90.30;;;;;;5017507;28;20199;-89
2023/02/02 05:13:49;;;;;;;44.37;24.83;;;5.10;90.40;;;;;;5016148;28;20299;-88
2023/02/02 05:16:16;;;;;;;54.93;25.07;;;5.10;90.40;;;;;;5015634;28;20177;-88
2023/02/02 05:18:42;;;;;;;53.77;27.13;;;5.20;90.40;;;;;;5017180;28;20181;-88
2023/02/02 05:21:08;;;;;;;48.57;27.37;;;5.10;90.40;;;;;;5015662;28;20196;-89
2023/02/02 05:23:33;;;;;;;62.30;27.13;;;5.10;90.50;;;;;;5015887;28;20178;-88
2023/02/02 05:25:59;;;;;;;47.47;27.37;;;5.10;90.60;;;;;;5015838;28;20709;-89
2023/02/02 05:28:24;;;;;;;60.93;28.00;;;5.00;90.60;;;;;;5015568;28;20181;-89
2023/02/02 05:30:50;;;;;;;52.43;26.80;;;5.00;90.70;;;;;;5016821;28;20200;-89
2023/02/02 05:33:20;;;;;;;45.20;26.43;;;5.10;90.80;;;;;;5015487;28;20204;-89
2023/02/02 05:35:46;;;;;;;42.10;25.10;;;5.10;90.70;;;;;;5016867;28;20254;-89
2023/02/02 05:38:13;;;;;;;38.97;24.17;;;5.10;90.70;;;;;;5015559;28;20187;-88
2023/02/02 05:40:38;;;;;;;44.17;25.40;;;5.10;90.70;;;;;;5016567;28;20284;-89
2023/02/02 05:43:04;;;;;;;47.33;25.37;;;5.00;90.50;;;;;;5015596;28;20207;-89
2023/02/02 05:45:29;;;;;;;42.07;25.03;;;5.00;90.50;;;;;;5015378;28;20238;-89
2023/02/02 05:47:55;;;;;;;42.87;26.73;;;5.00;90.50;;;;;;5016622;28;20206;-89
2023/02/02 05:50:20;;;;;;;38.73;26.63;;;5.00;90.60;;;;;;5014915;28;20204;-89
2023/02/02 05:52:47;;;;;;;37.30;26.43;;;4.90;90.60;;;;;;5016229;28;20227;-88
2023/02/02 05:55:13;;;;;;;48.00;24.53;;;5.00;91.00;;;;;;5015358;28;20177;-89
2023/02/02 05:57:38;;;;;;;47.67;24.77;;;4.90;90.90;;;;;;5016533;28;20649;-89
2023/02/02 06:00:04;;;;;;;46.60;23.23;;;5.00;91.10;;;;;;5014983;28;20181;-88
2023/02/02 06:02:30;;;;;;;48.67;24.57;;;5.00;91.10;;;;;;5014964;28;20595;-88
2023/02/02 06:04:55;;;;;;;41.40;23.50;;;5.00;91.00;;;;;;5016622;28;20174;-89
2023/02/02 06:07:21;;;;;;;44.20;24.43;;;4.90;91.10;;;;;;5016546;28;20535;-89
2023/02/02 06:09:47;;;;;;;47.17;25.63;;;4.90;91.10;;;;;;5014329;28;20189;-89
2023/02/02 06:12:12;;;;;;;61.83;26.10;;;4.90;91.20;;;;;;5014917;28;20204;-88
2023/02/02 06:14:38;;;;;;;49.27;25.33;;;5.00;91.20;;;;;;5015005;28;20295;-88
2023/02/02 06:17:03;;;;;;;37.43;25.53;;;5.00;91.30;;;;;;5015355;28;20184;-89
2023/02/02 06:19:29;;;;;;;41.83;26.10;;;5.00;91.40;;;;;;5015114;28;20220;-88
2023/02/02 06:21:54;;;;;;;48.27;21.80;;;5.10;91.20;;;;;;5014684;28;20203;-89
2023/02/02 06:24:20;;;;;;;40.80;21.93;;;5.10;90.80;;;;;;5014571;28;20187;-89
2023/02/02 06:26:45;;;;;;;38.27;22.73;;;5.00;90.60;;;;;;5014511;28;20195;-89
2023/02/02 06:29:12;;;;;;;55.93;24.47;;;5.00;90.60;;;;;;5014679;28;20179;-89
2023/02/02 06:31:38;;;;;;;51.00;27.70;;;5.10;90.80;;;;;;5014284;28;20246;-89
2023/02/02 06:34:04;;;;;;;59.53;26.33;;;5.10;90.90;;;;;;5014418;28;20201;-89
2023/02/02 06:36:29;;;;;;;64.00;28.40;;;5.20;91.00;;;;;;5014406;28;20181;-89
2023/02/02 06:38:56;;;;;;;58.87;27.47;;;5.20;91.10;;;;;;5014613;28;20639;-89
2023/02/02 06:41:22;;;;;;;51.90;27.10;;;5.20;91.30;;;;;;5014058;28;20752;-89
2023/02/02 06:43:49;;;;;;;54.57;27.00;;;5.20;91.30;;;;;;5014128;28;20181;-89
2023/02/02 06:46:15;;;;;;;47.73;26.90;;;5.10;91.30;;;;;;5014054;28;20177;-89
2023/02/02 06:48:41;;;;;;;52.67;26.03;;;5.00;91.30;;;;;;5014002;28;20276;-89
2023/02/02 06:51:06;;;;;;;53.63;26.33;;;5.00;91.30;;;;;;5013928;28;20232;-89
2023/02/02 06:53:33;;;;;;;51.87;25.80;;;4.90;91.30;;;;;;5015142;28;20196;-89
2023/02/02 06:56:01;;;;;;;53.10;26.90;;;4.90;91.30;;;;;;5013748;28;20177;-89
2023/02/02 06:58:26;;;;;;;33.17;26.30;;;4.90;91.30;;;;;;5013906;28;20173;-89
2023/02/02 07:00:52;;;;;;;45.47;25.90;;;4.80;91.40;;;;;;5013592;28;20263;-89
2023/02/02 07:03:22;;;;;;;44.67;28.30;;;4.80;91.50;;;;;;5013983;28;20565;-89
2023/02/02 07:05:48;;;;;;;45.63;28.93;;;4.80;91.50;;;;;;5013693;28;20176;-89
2023/02/02 07:08:14;;;;;;;52.83;27.23;;;4.90;91.50;;;;;;5013622;28;20603;-89
2023/02/02 07:10:39;;;;;;;51.03;26.73;;;4.90;91.50;;;;;;5013731;28;20199;-89
2023/02/02 07:13:06;;;;;;;42.67;24.47;;;4.90;91.50;;;;;;5013996;28;20215;-89
2023/02/02 07:15:33;;;;;;;42.70;25.30;;;4.90;91.40;;;;;;5013683;28;20260;-89
2023/02/02 07:17:59;;;;;;;40.47;24.73;;;4.90;91.40;;;;;;5013586;28;20178;-89
2023/02/02 07:20:25;;;;;;;42.00;24.33;;;4.90;91.20;;;;;;5012426;28;20201;-89
2023/02/02 07:22:50;;;;;;;41.17;25.20;;;4.80;91.10;;;;;;5014624;28;20187;-89
2023/02/02 07:25:16;;;;;;;49.57;23.53;;;4.80;91.10;;;;;;5013430;28;20271;-89
2023/02/02 07:27:41;;;;;;;47.50;24.57;;;4.80;91.00;;;;;;5014473;28;20184;-89
2023/02/02 07:30:08;;;;;;;35.40;22.90;;;4.70;91.00;;;;;;5013155;28;20628;-90
2023/02/02 07:32:34;;;;;;;42.53;23.50;;;4.60;90.90;;;;;;5013137;28;20184;-89
2023/02/02 07:34:59;;;;;;;46.17;24.77;;;4.60;90.80;;;;;;5013073;28;20261;-89
2023/02/02 07:37:25;;;;;;;36.50;24.33;;;4.60;90.80;;;;;;5013197;28;20638;-88
2023/02/02 07:39:50;;;;;;;36.30;21.80;;;4.60;90.70;;;;;;5013187;28;20176;-89
2023/02/02 07:42:16;;;;;;;42.13;22.43;;;4.60;90.60;;;;;;5013174;28;20232;-89
2023/02/02 07:44:41;;;;;;;39.80;22.57;;;4.60;90.50;;;;;;5014480;28;20262;-89
2023/02/02 07:47:06;;;;;;;36.27;21.83;;;4.60;90.50;;;;;;5013027;28;20185;-89
2023/02/02 07:49:32;;;;;;;29.27;19.47;;;4.70;90.40;;;;;;5013071;28;20556;-89
2023/02/02 07:51:58;;;;;;;33.10;21.63;;;4.70;90.20;;;;;;5013082;28;20578;-89
2023/02/02 07:54:23;;;;;;;32.53;21.33;;;4.60;90.10;;;;;;5012895;28;20197;-89
2023/02/02 07:56:49;;;;;;;35.23;20.00;;;4.70;90.00;;;;;;5012969;28;20176;-89
2023/02/02 07:59:14;;;;;;;30.47;21.40;;;4.60;89.90;;;;;;5012918;28;20176;-90
2023/02/02 08:01:40;;;;;;;30.80;20.37;;;4.60;90.00;;;;;;5012763;28;20220;-89
2023/02/02 08:04:06;;;;;;;28.70;23.30;;;4.50;90.10;;;;;;5012913;28;20177;-89
2023/02/02 08:06:34;;;;;;;28.83;20.80;;;4.50;90.20;;;;;;5013036;28;20275;-89
2023/02/02 08:09:01;;;;;;;35.93;20.17;;;4.50;90.20;;;;;;5014115;28;20210;-89
2023/02/02 08:11:27;;;;;;;37.90;22.70;;;4.50;90.20;;;;;;5013924;28;20575;-89
2023/02/02 08:13:55;;;;;;;42.40;22.37;;;4.60;90.30;;;;;;5013809;28;20204;-88
2023/02/02 08:16:22;;;;;;;30.67;21.83;;;4.60;90.30;;;;;;5012884;28;20594;-89
2023/02/02 08:18:48;;;;;;;34.87;20.47;;;4.60;90.40;;;;;;5013084;28;20199;-89
2023/02/02 08:21:14;;;;;;;27.83;21.60;;;4.60;90.40;;;;;;5012638;28;20219;-89
2023/02/02 08:23:41;;;;;;;25.53;19.77;;;4.60;90.30;;;;;;5012737;28;20184;-88
2023/02/02 08:26:12;;;;;;;28.20;19.90;;;4.70;90.20;;;;;;5012555;28;20183;-88
2023/02/02 08:28:40;;;;;;;37.30;20.33;;;4.60;90.20;;;;;;5012956;28;20204;-89
2023/02/02 08:31:11;;;;;;;34.77;21.07;;;4.70;90.30;;;;;;5012761;28;20199;-89
2023/02/02 08:33:37;;;;;;;36.67;21.40;;;4.70;90.30;;;;;;5017636;28;20654;-89
2023/02/02 08:36:04;;;;;;;24.07;21.30;;;4.70;90.30;;;;;;5016669;28;20551;-89
2023/02/02 08:38:29;;;;;;;33.73;21.90;;;4.60;90.40;;;;;;5016405;28;20552;-89
2023/02/02 08:40:55;;;;;;;29.20;20.37;;;4.60;90.40;;;;;;5016577;28;20202;-89
2023/02/02 08:43:20;;;;;;;39.50;22.37;;;4.70;90.60;;;;;;5017726;28;20176;-89
2023/02/02 08:45:47;;;;;;;39.80;22.83;;;4.70;90.60;;;;;;5016210;28;20280;-89
2023/02/02 08:48:13;;;;;;;38.07;22.17;;;4.80;90.70;;;;;;5017488;28;20226;-89
2023/02/02 08:50:38;;;;;;;34.97;22.77;;;4.80;90.70;;;;;;5016324;28;20229;-89
2023/02/02 08:53:04;;;;;;;32.47;21.50;;;4.80;90.60;;;;;;5017394;28;20183;-89
2023/02/02 08:55:29;;;;;;;39.30;22.00;;;4.90;90.50;;;;;;5016276;28;20700;-89
2023/02/02 08:57:55;;;;;;;36.47;21.30;;;5.00;90.30;;;;;;5016145;28;20177;-89
2023/02/02 09:00:21;;;;;;;37.73;20.93;;;5.00;90.30;;;;;;5017139;28;20197;-89
2023/02/02 09:02:50;;;;;;;26.07;20.13;;;5.00;90.30;;;;;;5017213;28;20311;-89
2023/02/02 09:05:15;;;;;;;33.83;21.87;;;5.10;90.30;;;;;;5016111;28;20279;-89
2023/02/02 09:07:41;;;;;;;26.17;22.03;;;5.10;90.30;;;;;;5016313;28;20224;-89
2023/02/02 09:10:07;;;;;;;33.77;22.27;;;5.20;90.30;;;;;;5016055;28;20217;-89
2023/02/02 09:12:32;;;;;;;38.97;22.47;;;5.20;90.10;;;;;;5015724;28;20181;-89
2023/02/02 09:14:58;;;;;;;38.73;20.63;;;5.30;90.00;;;;;;5016992;28;20216;-88
2023/02/02 09:17:23;;;;;;;31.80;20.67;;;5.30;89.90;;;;;;5016628;28;20192;-89
2023/02/02 09:19:49;;;;;;;35.93;20.47;;;5.30;89.80;;;;;;5015611;28;20640;-88
2023/02/02 09:22:15;;;;;;;37.30;22.70;;;5.40;89.90;;;;;;5015733;28;20198;-89
2023/02/02 09:24:40;;;;;;;36.33;22.20;;;5.50;90.20;;;;;;5016812;28;20177;-89
2023/02/02 09:27:06;;;;;;;29.97;21.70;;;5.60;90.10;;;;;;5016020;28;20670;-89
2023/02/02 09:29:31;;;;;;;32.90;22.23;;;5.80;90.00;;;;;;5016630;28;20215;-89
2023/02/02 09:31:57;;;;;;;39.93;21.77;;;5.70;89.70;;;;;;5015879;28;20206;-89
2023/02/02 09:34:22;;;;;;;33.27;21.13;;;5.70;89.80;;;;;;5015550;28;20280;-89
2023/02/02 09:36:48;;;;;;;36.67;21.40;;;5.70;89.50;;;;;;5015933;28;20708;-89
2023/02/02 09:39:15;;;;;;;28.57;21.23;;;5.60;89.60;;;;;;5015682;28;20233;-90
2023/02/02 09:42:01;;;;;;;27.00;22.57;;;5.70;89.60;;;;;;5016721;28;20694;-89
2023/02/02 09:44:59;;;;;;;41.03;22.50;;;5.80;89.60;;;;;;5014395;28;20185;-89
2023/02/02 09:47:36;;;;;;;33.23;21.13;;;5.90;89.40;;;;;;5015646;28;20531;-89
2023/02/02 09:50:26;;;;;;;43.33;21.60;;;6.00;89.20;;;;;;5017623;28;20164;-89
2023/02/02 09:52:57;;;;;;;30.50;20.60;;;6.10;89.00;;;;;;5016193;28;20647;-89
2023/02/02 09:55:58;;;;;;;40.23;19.70;;;6.10;88.80;;;;;;5016341;28;20185;-90
2023/02/02 09:58:35;;;;;;;31.83;21.43;;;6.20;88.50;;;;;;5011709;28;20188;-89
2023/02/02 10:01:03;;;;;;;27.53;19.27;;;6.40;88.40;;;;;;5015437;28;20213;-89
2023/02/02 10:03:38;;;;;;;24.77;18.40;;;6.30;88.20;;;;;;5019556;28;20618;-90
2023/02/02 10:06:29;;;;;;;37.23;19.60;;;6.10;87.80;;;;;;5015949;28;20200;-90
2023/02/02 10:09:14;;;;;;;29.77;20.73;;;6.20;88.20;;;;;;5014920;28;20227;-89
2023/02/02 10:11:50;;;;;;;36.00;20.10;;;6.30;88.50;;;;;;5015828;28;20218;-89
2023/02/02 10:14:50;;;;;;;27.30;18.37;;;6.50;88.30;;;;;;5015357;28;20204;-90
2023/02/02 10:17:48;;;;;;;28.03;18.80;;;6.60;88.20;;;;;;5009072;28;20189;-90
2023/02/02 10:20:22;;;;;;;28.07;17.10;;;6.70;88.20;;;;;;5014940;28;20176;-89
2023/02/02 10:22:49;;;;;;;26.40;18.07;;;6.70;87.30;;;;;;5014681;28;20208;-90
2023/02/02 10:25:15;;;;;;;29.57;18.93;;;6.70;87.40;;;;;;5014897;28;20203;-90
2023/02/02 10:27:50;;;;;;;28.23;19.07;;;6.60;87.40;;;;;;5014663;28;20338;-89
2023/02/02 10:30:19;;;;;;;32.40;19.00;;;6.50;87.20;;;;;;5014621;28;20207;-89
2023/02/02 10:33:15;;;;;;;28.07;17.50;;;6.70;87.60;;;;;;5014550;28;20655;-89
2023/02/02 10:36:00;;;;;;;23.73;17.13;;;6.80;87.10;;;;;;5010849;28;20197;-90
2023/02/02 10:38:40;;;;;;;27.43;16.73;;;7.00;87.20;;;;;;5014741;28;20173;-89
2023/02/02 10:41:29;;;;;;;28.07;18.17;;;7.00;86.80;;;;;;5015720;28;20584;-90
2023/02/02 10:44:13;;;;;;;30.43;17.90;;;7.10;86.40;;;;;;5015410;28;20509;-89
2023/02/02 10:46:44;;;;;;;26.37;16.33;;;7.20;86.20;;;;;;5015785;28;20176;-91
2023/02/02 10:49:15;;;;;;;29.97;17.40;;;7.30;85.50;;;;;;5016453;28;20655;-91
2023/02/02 10:51:50;;;;;;;27.50;17.23;;;7.30;85.20;;;;;;5014487;28;20197;-90
2023/02/02 10:54:37;;;;;;;23.13;17.43;;;7.50;85.10;;;;;;5014029;28;20192;-89
2023/02/02 10:57:06;;;;;;;22.87;17.13;;;7.50;84.70;;;;;;5015277;28;20146;-90
2023/02/02 10:59:34;;;;;;;29.63;17.20;;;7.70;84.30;;;;;;5014560;28;20177;-90
2023/02/02 11:02:00;;;;;;;28.37;18.10;;;7.70;83.90;;;;;;5014517;28;20308;-90
2023/02/02 11:07:18;;;;;;;21.37;17.70;;;7.90;84.20;;;;;;5016257;28;20586;-89
2023/02/02 11:09:44;;;;;;;23.43;18.67;;;7.90;83.60;;;;;;5016275;28;20237;-89
2023/02/02 11:12:19;;;;;;;28.63;19.17;;;7.80;83.40;;;;;;5013916;28;20209;-90
2023/02/02 11:15:06;;;;;;;24.37;17.73;;;7.90;83.90;;;;;;5015329;28;20670;-90
2023/02/02 11:17:33;;;;;;;22.73;18.77;;;8.10;84.00;;;;;;5013620;28;20218;-89
2023/02/02 11:19:59;;;;;;;32.50;19.80;;;8.10;83.80;;;;;;5013350;28;20526;-89
2023/02/02 11:22:33;;;;;;;28.57;18.20;;;8.10;83.20;;;;;;5013240;28;20181;-89
2023/02/02 11:25:03;;;;;;;20.53;18.03;;;8.20;83.40;;;;;;5013764;28;20200;-89
2023/02/02 11:27:38;;;;;;;26.70;18.10;;;8.30;83.10;;;;;;5013198;28;20235;-89
2023/02/02 11:30:22;;;;;;;22.50;17.60;;;8.30;82.70;;;;;;5013533;28;20173;-89
2023/02/02 11:32:49;;;;;;;30.70;18.20;;;8.30;82.50;;;;;;5013547;28;20181;-89
2023/02/02 11:35:24;;;;;;;28.17;17.37;;;8.40;82.10;;;;;;5013407;28;20204;-89
2023/02/02 11:38:13;;;;;;;22.10;15.80;;;8.50;81.70;;;;;;5014558;28;20620;-89
2023/02/02 11:40:51;;;;;;;24.20;16.50;;;8.60;81.50;;;;;;5014334;28;20239;-89
2023/02/02 11:43:42;;;;;;;20.33;17.30;;;8.60;80.70;;;;;;5014229;28;20209;-89
2023/02/02 11:46:19;;;;;;;25.50;16.30;;;8.60;81.20;;;;;;5013513;28;20722;-89
2023/02/02 11:49:12;;;;;;;17.37;15.60;;;8.50;81.00;;;;;;5012994;28;20711;-89
2023/02/02 11:51:37;;;;;;;22.33;16.17;;;8.70;80.10;;;;;;5013199;28;20203;-89
2023/02/02 11:54:12;;;;;;;23.53;15.87;;;8.70;80.10;;;;;;5013331;28;20209;-90
2023/02/02 11:56:38;;;;;;;20.27;17.13;;;8.80;79.60;;;;;;5013249;28;20161;-89
2023/02/02 11:59:04;;;;;;;19.83;16.70;;;8.60;78.90;;;;;;5013238;28;20188;-89
2023/02/02 12:01:38;;;;;;;23.70;18.53;;;8.80;79.50;;;;;;5013654;28;20244;-90
2023/02/02 12:04:24;;;;;;;25.03;18.07;;;8.60;79.00;;;;;;5014033;28;20588;-90
2023/02/02 12:06:50;;;;;;;23.13;17.03;;;8.60;77.70;;;;;;5013436;28;20208;-90
2023/02/02 12:09:24;;;;;;;20.63;17.17;;;8.50;78.90;;;;;;5013042;28;20186;-90
2023/02/02 12:11:56;;;;;;;20.50;18.27;;;8.30;78.90;;;;;;5016936;28;20280;-91
2023/02/02 12:14:49;;;;;;;19.67;17.80;;;8.30;79.70;;;;;;5013465;28;20201;-90
2023/02/02 12:17:33;;;;;;;26.23;19.10;;;8.30;79.60;;;;;;5012979;28;20262;-89
2023/02/02 12:20:35;;;;;;;22.00;18.60;;;7.90;79.40;;;;;;5013446;28;20166;-89
2023/02/02 12:23:09;;;;;;;19.30;17.37;;;7.80;80.10;;;;;;4994925;28;20191;-89
2023/02/02 12:26:08;;;;;;;16.97;15.40;;;7.80;81.20;;;;;;5013587;28;20169;-90
2023/02/02 12:28:54;;;;;;;18.90;16.80;;;7.70;81.30;;;;;;5014204;28;20177;-89
2023/02/02 12:31:33;;;;;;;26.10;16.80;;;7.30;80.80;;;;;;5013423;28;20255;-89
2023/02/02 12:34:22;;;;;;;20.20;18.10;;;7.30;81.70;;;;;;5013319;28;20197;-89
2023/02/02 12:37:15;;;;;;;22.37;16.57;;;7.30;82.20;;;;;;5013064;28;20162;-89
2023/02/02 12:39:54;;;;;;;21.27;16.97;;;7.20;81.70;;;;;;5012725;28;20603;-87
2023/02/02 12:42:25;;;;;;;26.27;17.10;;;7.10;81.90;;;;;;5012105;28;20568;-88
2023/02/02 12:45:09;;;;;;;19.27;17.23;;;7.30;82.40;;;;;;5014160;28;20204;-91
2023/02/02 12:48:03;;;;;;;21.13;16.80;;;7.20;81.70;;;;;;5012278;28;20188;-91
2023/02/02 12:50:38;;;;;;;19.27;16.17;;;7.10;81.80;;;;;;5012287;28;20621;-91
2023/02/02 12:53:22;;;;;;;19.20;15.87;;;7.20;82.40;;;;;;5012282;28;20576;-90
2023/02/02 12:56:23;;;;;;;17.93;15.60;;;7.40;82.10;;;;;;5013251;28;20184;-91
2023/02/02 12:59:15;;;;;;;22.17;15.67;;;7.70;80.90;;;;;;5012112;28;20200;-90
2023/02/02 13:01:46;;;;;;;25.50;15.27;;;7.80;80.20;;;;;;4981964;28;20721;-91
2023/02/02 13:04:18;;;;;;;17.67;15.93;;;8.10;79.80;;;;;;5012147;28;20189;-91